createdAt,value
2022-10-12T00:00:05.695Z,18.08
2022-10-12T00:04:27.074Z,20.70
2022-10-12T00:08:42.231Z,20.45
2022-10-12T00:12:55.881Z,20.77
2022-10-12T00:17:09.735Z,20.97
2022-10-12T00:21:25.874Z,22.15
2022-10-12T00:25:40.916Z,19.85
2022-10-12T00:29:54.562Z,21.45
2022-10-12T00:34:08.328Z,19.23
2022-10-12T00:38:24.074Z,23.85
2022-10-12T00:42:37.721Z,18.13
2022-10-12T00:47:00.459Z,20.17
2022-10-12T00:51:15.395Z,20.10
2022-10-12T00:55:35.736Z,17.20
2022-10-12T00:59:52.756Z,19.67
2022-10-12T01:04:08.476Z,22.35
2022-10-12T01:08:22.644Z,19.92
2022-10-12T01:12:38.643Z,17.30
2022-10-12T01:16:56.203Z,23.07
2022-10-12T01:21:18.347Z,21.23
2022-10-12T01:25:47.208Z,17.65
2022-10-12T01:30:13.002Z,18.97
2022-10-12T01:34:34.379Z,23.85
2022-10-12T01:38:54.692Z,16.70
2022-10-12T01:43:09.572Z,19.90
2022-10-12T01:47:24.645Z,15.75
2022-10-12T01:51:47.865Z,18.20
2022-10-12T01:56:12.478Z,19.42
2022-10-12T02:00:26.289Z,16.37
2022-10-12T02:04:47.452Z,17.67
2022-10-12T02:09:07.094Z,14.60
2022-10-12T02:13:23.393Z,16.63
2022-10-12T02:17:38.133Z,16.75
2022-10-12T02:21:57.170Z,18.38
2022-10-12T02:26:12.381Z,18.53
2022-10-12T02:30:27.073Z,15.05
2022-10-12T02:34:45.575Z,17.13
2022-10-12T02:39:06.650Z,15.88
2022-10-12T02:43:24.463Z,16.60
2022-10-12T02:47:39.148Z,19.40
2022-10-12T02:51:54.259Z,17.88
2022-10-12T02:56:13.133Z,19.50
2022-10-12T03:00:26.973Z,15.32
2022-10-12T03:04:40.886Z,18.55
2022-10-12T03:08:57.041Z,17.47
2022-10-12T03:13:12.117Z,18.92
2022-10-12T03:17:26.175Z,19.38
2022-10-12T03:21:39.940Z,21.13
2022-10-12T03:25:54.041Z,16.57
2022-10-12T03:30:11.424Z,19.17
2022-10-12T03:34:25.389Z,16.88
2022-10-12T03:38:39.129Z,21.67
2022-10-12T03:42:52.784Z,16.88
2022-10-12T03:47:07.841Z,15.60
2022-10-12T03:51:21.547Z,14.70
2022-10-12T03:55:35.552Z,16.70
2022-10-12T03:59:49.637Z,15.38
2022-10-12T04:04:04.828Z,19.80
2022-10-12T04:08:21.463Z,20.13
2022-10-12T04:12:35.081Z,15.63
2022-10-12T04:16:48.858Z,18.23
2022-10-12T04:21:04.846Z,17.27
2022-10-12T04:25:19.067Z,18.35
2022-10-12T04:29:33.310Z,15.00
2022-10-12T04:33:47.126Z,16.67
2022-10-12T04:38:05.535Z,9.00
2022-10-12T04:42:19.159Z,12.98
2022-10-12T04:46:33.114Z,19.67
2022-10-12T04:50:46.929Z,16.27
2022-10-12T04:55:02.130Z,14.10
2022-10-12T04:59:16.265Z,15.32
2022-10-12T05:03:30.030Z,14.80
2022-10-12T05:07:43.702Z,16.17
2022-10-12T05:11:58.839Z,19.20
2022-10-12T05:16:12.563Z,16.60
2022-10-12T05:20:26.300Z,17.98
2022-10-12T05:24:39.955Z,18.25
2022-10-12T05:28:55.029Z,16.48
2022-10-12T05:33:09.365Z,16.40
2022-10-12T05:37:23.058Z,18.63
2022-10-12T05:41:37.106Z,22.38
2022-10-12T05:45:52.163Z,20.90
2022-10-12T05:50:06.559Z,19.98
2022-10-12T05:54:21.553Z,30.80
2022-10-12T05:58:35.270Z,21.47
2022-10-12T06:02:50.326Z,18.83
2022-10-12T06:07:04.178Z,19.02
2022-10-12T06:11:21.226Z,18.73
2022-10-12T06:15:36.373Z,16.87
2022-10-12T06:19:51.377Z,20.25
2022-10-12T06:24:05.457Z,17.52
2022-10-12T06:28:21.261Z,17.23
2022-10-12T06:32:35.689Z,20.15
2022-10-12T06:36:51.277Z,17.63
2022-10-12T06:41:04.964Z,19.43
2022-10-12T06:45:19.159Z,17.63
2022-10-12T06:49:32.810Z,18.58
2022-10-12T06:53:47.877Z,17.38
2022-10-12T06:58:01.576Z,13.80
2022-10-12T07:02:15.405Z,12.75
2022-10-12T07:06:29.213Z,14.70
2022-10-12T07:10:44.252Z,11.87
2022-10-12T07:14:58.975Z,10.00
2022-10-12T07:19:12.874Z,12.23
2022-10-12T07:23:26.891Z,11.50
2022-10-12T07:27:42.189Z,12.60
2022-10-12T07:31:56.030Z,15.75
2022-10-12T07:36:15.641Z,12.02
2022-10-12T07:40:33.517Z,15.23
2022-10-12T07:44:48.614Z,13.93
2022-10-12T07:49:02.981Z,11.70
2022-10-12T07:53:17.283Z,12.93
2022-10-12T07:57:31.032Z,10.73
2022-10-12T08:01:46.150Z,11.45
2022-10-12T08:05:59.900Z,14.27
2022-10-12T08:10:13.699Z,10.63
2022-10-12T08:14:27.432Z,14.20
2022-10-12T08:18:43.379Z,13.65
2022-10-12T08:22:57.081Z,12.07
2022-10-12T08:27:11.600Z,13.40
2022-10-12T08:31:25.608Z,14.45
2022-10-12T08:35:41.799Z,15.37
2022-10-12T08:39:58.588Z,14.35
2022-10-12T08:44:54.793Z,17.42
2022-10-12T08:49:14.134Z,16.07
2022-10-12T08:53:32.959Z,13.27
2022-10-12T08:57:49.895Z,12.48
2022-10-12T09:02:23.019Z,11.85
2022-10-12T09:06:42.024Z,10.63
2022-10-12T09:11:09.730Z,9.45
2022-10-12T09:15:27.574Z,12.82
2022-10-12T09:19:43.550Z,10.60
2022-10-12T09:23:58.559Z,10.35
2022-10-12T09:28:18.400Z,9.52
2022-10-12T09:32:58.933Z,8.60
2022-10-12T09:37:18.041Z,13.35
2022-10-12T09:41:39.088Z,9.95
2022-10-12T09:45:54.456Z,12.45
2022-10-12T09:50:09.505Z,7.63
2022-10-12T09:54:25.463Z,12.57
2022-10-12T09:58:44.956Z,11.30
2022-10-12T10:03:01.509Z,10.60
2022-10-12T10:07:26.233Z,10.68
2022-10-12T10:11:40.199Z,11.07
2022-10-12T10:16:04.625Z,9.67
2022-10-12T10:20:31.908Z,11.00
2022-10-12T10:24:52.793Z,13.90
2022-10-12T10:29:33.917Z,11.43
2022-10-12T10:34:05.139Z,11.80
2022-10-12T10:38:20.221Z,11.98
2022-10-12T10:42:35.827Z,8.43
2022-10-12T10:46:49.631Z,10.57
2022-10-12T10:51:05.905Z,10.50
2022-10-12T10:55:24.562Z,7.15
2022-10-12T10:59:44.377Z,10.93
2022-10-12T11:04:02.591Z,11.57
2022-10-12T11:08:21.908Z,13.57
2022-10-12T11:12:46.656Z,9.70
2022-10-12T11:17:05.215Z,9.87
2022-10-12T11:21:22.858Z,8.40
2022-10-12T11:25:48.965Z,9.18
2022-10-12T11:30:13.490Z,9.23
2022-10-12T11:34:29.690Z,10.82
2022-10-12T11:38:47.084Z,10.60
2022-10-12T11:43:06.733Z,12.97
2022-10-12T11:47:32.239Z,8.48
2022-10-12T11:51:48.263Z,11.07
2022-10-12T11:56:09.132Z,7.00
2022-10-12T12:00:27.181Z,11.23
2022-10-12T12:04:45.822Z,9.38
2022-10-12T12:09:07.516Z,8.77
2022-10-12T12:13:26.866Z,11.20
2022-10-12T12:17:40.672Z,8.50
2022-10-12T12:22:18.127Z,10.25
2022-10-12T12:26:32.516Z,11.03
2022-10-12T12:30:57.624Z,15.43
2022-10-12T12:35:31.935Z,9.40
2022-10-12T12:39:53.569Z,8.93
2022-10-12T12:44:40.470Z,10.77
2022-10-12T12:49:04.754Z,10.57
2022-10-12T12:53:21.727Z,9.60
2022-10-12T12:57:56.463Z,6.90
2022-10-12T13:02:30.050Z,10.73
2022-10-12T13:07:18.029Z,14.45
2022-10-12T13:11:49.795Z,7.20
2022-10-12T13:16:57.184Z,10.65
2022-10-12T13:20:56.525Z,11.93
2022-10-12T13:25:18.060Z,10.88
2022-10-12T13:29:40.108Z,10.37
2022-10-12T13:34:01.227Z,11.57
2022-10-12T13:38:22.485Z,11.18
2022-10-12T13:42:36.733Z,9.47
2022-10-12T13:46:52.076Z,11.23
2022-10-12T13:51:23.450Z,10.40
2022-10-12T13:55:37.231Z,12.90
2022-10-12T13:59:57.627Z,9.95
2022-10-12T14:04:11.996Z,8.27
2022-10-12T14:08:28.893Z,13.13
2022-10-12T14:12:44.134Z,10.73
2022-10-12T14:16:57.854Z,9.05
2022-10-12T14:21:23.995Z,10.88
2022-10-12T14:25:40.271Z,10.83
2022-10-12T14:30:04.948Z,7.30
2022-10-12T14:34:41.906Z,12.93
2022-10-12T14:38:59.045Z,11.53
2022-10-12T14:43:24.584Z,9.77
2022-10-12T14:47:39.944Z,8.50
2022-10-12T14:51:55.352Z,13.70
2022-10-12T14:56:10.647Z,11.17
2022-10-12T15:00:28.597Z,11.85
2022-10-12T15:04:42.533Z,9.70
2022-10-12T15:08:56.283Z,13.00
2022-10-12T15:13:13.316Z,9.68
2022-10-12T15:17:28.530Z,9.18
2022-10-12T15:21:42.269Z,10.50
2022-10-12T15:25:58.086Z,10.18
2022-10-12T15:30:13.257Z,12.55
2022-10-12T15:34:28.657Z,9.88
2022-10-12T15:38:42.423Z,11.70
2022-10-12T15:42:56.328Z,10.50
2022-10-12T15:47:11.755Z,14.07
2022-10-12T15:51:27.053Z,11.67
2022-10-12T15:55:40.654Z,13.25
2022-10-12T15:59:54.698Z,10.45
2022-10-12T16:04:08.646Z,13.27
2022-10-12T16:08:24.320Z,14.73
2022-10-12T16:12:38.630Z,10.88
2022-10-12T16:16:52.473Z,11.68
2022-10-12T16:21:06.428Z,12.97
2022-10-12T16:25:23.999Z,13.55
2022-10-12T16:29:38.836Z,12.05
2022-10-12T16:33:52.869Z,12.87
2022-10-12T16:38:06.626Z,13.45
2022-10-12T16:42:21.947Z,14.20
2022-10-12T16:46:36.906Z,13.53
2022-10-12T16:50:50.730Z,13.38
2022-10-12T16:55:05.472Z,21.35
2022-10-12T16:59:20.621Z,16.90
2022-10-12T17:03:34.319Z,12.13
2022-10-12T17:07:48.012Z,13.50
2022-10-12T17:12:01.861Z,14.10
2022-10-12T17:16:34.644Z,12.83
2022-10-12T17:20:50.746Z,13.38
2022-10-12T17:25:07.488Z,17.33
2022-10-12T17:29:22.268Z,12.63
2022-10-12T17:33:37.920Z,12.77
2022-10-12T17:37:51.552Z,13.70
2022-10-12T17:42:05.882Z,13.23
2022-10-12T17:46:22.571Z,12.80
2022-10-12T17:50:37.948Z,16.55
2022-10-12T17:54:51.905Z,19.27
2022-10-12T17:59:06.064Z,12.53
2022-10-12T18:03:25.807Z,17.35
2022-10-12T18:07:41.166Z,15.60
2022-10-12T18:11:54.960Z,15.93
2022-10-12T18:16:11.224Z,17.42
2022-10-12T18:20:28.856Z,15.27
2022-10-12T18:24:44.161Z,16.00
2022-10-12T18:29:01.005Z,13.20
2022-10-12T18:33:15.514Z,13.43
2022-10-12T18:37:29.435Z,13.15
2022-10-12T18:41:44.576Z,13.83
2022-10-12T18:45:58.277Z,10.50
2022-10-12T18:50:12.424Z,16.45
2022-10-12T18:54:26.098Z,16.40
2022-10-12T18:58:42.036Z,15.10
2022-10-12T19:02:55.830Z,16.48
2022-10-12T19:07:09.538Z,13.60
2022-10-12T19:11:24.491Z,15.67
2022-10-12T19:15:39.880Z,16.30
2022-10-12T19:19:53.524Z,16.20
2022-10-12T19:24:09.508Z,18.23
2022-10-12T19:28:23.149Z,16.83
2022-10-12T19:32:38.153Z,17.15
2022-10-12T19:36:52.788Z,15.13
2022-10-12T19:41:07.364Z,15.52
2022-10-12T19:45:20.986Z,13.27
2022-10-12T19:49:37.852Z,15.05
2022-10-12T19:53:54.642Z,16.57
2022-10-12T19:58:08.860Z,16.63
2022-10-12T20:02:22.493Z,16.10
2022-10-12T20:06:38.898Z,17.70
2022-10-12T20:10:52.892Z,16.10
2022-10-12T20:15:08.101Z,19.90
2022-10-12T20:19:21.809Z,16.93
2022-10-12T20:23:37.173Z,15.90
2022-10-12T20:27:50.799Z,15.93
2022-10-12T20:32:04.562Z,15.55
2022-10-12T20:36:21.803Z,17.03
2022-10-12T20:40:36.899Z,15.60
2022-10-12T20:44:51.129Z,16.13
2022-10-12T20:49:05.527Z,15.03
2022-10-12T20:53:19.189Z,15.60
2022-10-12T20:57:34.222Z,15.63
2022-10-12T21:01:47.977Z,17.87
2022-10-12T21:06:06.187Z,17.13
2022-10-12T21:10:19.923Z,14.90
2022-10-12T21:14:35.552Z,15.55
2022-10-12T21:18:49.568Z,18.90
2022-10-12T21:23:03.269Z,16.98
2022-10-12T21:27:17.003Z,18.80
2022-10-12T21:31:33.090Z,17.10
2022-10-12T21:35:47.317Z,16.38
2022-10-12T21:40:01.031Z,13.85
2022-10-12T21:44:15.780Z,14.53
2022-10-12T21:48:31.455Z,13.73
2022-10-12T21:52:49.641Z,18.20
2022-10-12T21:57:04.252Z,17.95
2022-10-12T22:01:20.984Z,19.50
2022-10-12T22:05:41.198Z,18.45
2022-10-12T22:09:54.837Z,17.20
2022-10-12T22:14:09.980Z,15.83
2022-10-12T22:18:23.643Z,16.52
2022-10-12T22:22:38.728Z,17.58
2022-10-12T22:26:52.433Z,18.40
2022-10-12T22:31:08.190Z,19.83
2022-10-12T22:35:22.021Z,18.05
2022-10-12T22:39:37.302Z,18.83
2022-10-12T22:43:52.402Z,18.63
2022-10-12T22:48:06.506Z,18.40
2022-10-12T22:52:20.623Z,15.95
2022-10-12T22:56:36.058Z,18.00
2022-10-12T23:00:49.918Z,19.08
2022-10-12T23:05:04.841Z,18.98
2022-10-12T23:09:18.465Z,20.40
2022-10-12T23:13:34.278Z,19.70
2022-10-12T23:17:48.538Z,18.25
2022-10-12T23:22:02.902Z,20.85
2022-10-12T23:26:18.670Z,18.93
2022-10-12T23:30:33.711Z,23.42
2022-10-12T23:34:48.684Z,20.10
2022-10-12T23:39:04.083Z,21.93
2022-10-12T23:43:17.816Z,21.77
2022-10-12T23:47:32.843Z,21.65
2022-10-12T23:51:46.796Z,21.10
2022-10-12T23:56:00.706Z,20.10
